createdAt,value
2019-04-05T00:01:10.970Z,44.03
2019-04-05T00:03:42.268Z,43.33
2019-04-05T00:06:13.480Z,41.18
2019-04-05T00:08:44.848Z,41.85
2019-04-05T00:11:16.012Z,39.33
2019-04-05T00:13:47.547Z,40.33
2019-04-05T00:16:18.770Z,41.05
2019-04-05T00:18:50.310Z,40.92
2019-04-05T00:21:22.032Z,41.75
2019-04-05T00:23:53.125Z,40.90
2019-04-05T00:26:24.378Z,42.15
2019-04-05T00:28:55.991Z,39.98
2019-04-05T00:31:28.431Z,40.60
2019-04-05T00:33:59.522Z,41.50
2019-04-05T00:36:30.987Z,42.67
2019-04-05T00:39:02.427Z,43.70
2019-04-05T00:41:35.173Z,43.52
2019-04-05T00:44:06.525Z,44.13
2019-04-05T00:46:37.724Z,46.88
2019-04-05T00:49:08.993Z,46.45
2019-04-05T00:51:40.453Z,46.98
2019-04-05T00:54:12.929Z,45.83
2019-04-05T00:56:44.283Z,46.65
2019-04-05T00:59:15.729Z,46.45
2019-04-05T01:01:46.927Z,46.18
2019-04-05T01:04:18.472Z,46.70
2019-04-05T01:06:49.683Z,46.95
2019-04-05T01:09:21.039Z,46.28
2019-04-05T01:11:52.303Z,44.60
2019-04-05T01:14:23.624Z,44.03
2019-04-05T01:16:54.771Z,43.98
2019-04-05T01:19:28.858Z,42.90
2019-04-05T01:22:00.360Z,41.63
2019-04-05T01:24:31.614Z,41.55
2019-04-05T01:27:03.006Z,41.88
2019-04-05T01:29:34.387Z,41.30
2019-04-05T01:32:05.749Z,41.85
2019-04-05T01:34:37.083Z,40.80
2019-04-05T01:37:08.261Z,44.80
2019-04-05T01:39:39.484Z,42.70
2019-04-05T01:42:10.994Z,42.60
2019-04-05T01:44:42.295Z,42.73
2019-04-05T01:47:13.517Z,43.50
2019-04-05T01:49:44.798Z,41.20
2019-04-05T01:52:15.918Z,40.75
2019-04-05T01:54:48.415Z,44.48
2019-04-05T01:57:19.827Z,49.73
2019-04-05T01:59:51.313Z,44.90
2019-04-05T02:02:22.567Z,43.98
2019-04-05T02:04:54.074Z,45.95
2019-04-05T02:07:25.444Z,43.73
2019-04-05T02:09:56.836Z,46.85
2019-04-05T02:12:29.045Z,49.08
2019-04-05T02:15:00.345Z,45.98
2019-04-05T02:17:31.661Z,45.48
2019-04-05T02:20:02.915Z,45.40
2019-04-05T02:22:34.586Z,45.95
2019-04-05T02:27:35.725Z,48.75
2019-04-05T02:30:06.934Z,48.83
2019-04-05T02:32:38.318Z,53.25
2019-04-05T02:35:09.691Z,52.17
2019-04-05T02:37:41.201Z,46.88
2019-04-05T02:40:14.451Z,44.42
2019-04-05T02:42:45.673Z,41.20
2019-04-05T02:45:18.553Z,41.55
2019-04-05T02:47:52.487Z,40.23
2019-04-05T02:50:25.257Z,40.63
2019-04-05T02:52:57.425Z,41.18
2019-04-05T02:55:29.790Z,41.63
2019-04-05T02:58:01.857Z,39.60
2019-04-05T03:00:34.028Z,40.63
2019-04-05T03:03:05.260Z,45.45
2019-04-05T03:05:37.263Z,46.53
2019-04-05T03:08:08.695Z,51.05
2019-04-05T03:10:46.931Z,51.45
2019-04-05T03:13:18.424Z,47.95
2019-04-05T03:15:49.810Z,50.98
2019-04-05T03:18:21.048Z,51.53
2019-04-05T03:20:52.388Z,54.70
2019-04-05T03:23:24.062Z,52.83
2019-04-05T03:25:57.500Z,60.33
2019-04-05T03:28:29.117Z,56.13
2019-04-05T03:31:04.240Z,61.58
2019-04-05T03:33:36.837Z,56.13
2019-04-05T03:36:11.743Z,52.75
2019-04-05T03:38:44.339Z,51.02
2019-04-05T03:41:15.588Z,54.23
2019-04-05T03:43:48.185Z,52.98
2019-04-05T03:46:19.480Z,49.10
2019-04-05T03:48:54.042Z,50.25
2019-04-05T03:51:26.019Z,52.78
2019-04-05T03:53:59.951Z,50.30
2019-04-05T03:56:33.325Z,53.33
2019-04-05T03:59:05.280Z,49.30
2019-04-05T04:01:36.560Z,52.93
2019-04-05T04:04:09.766Z,57.45
2019-04-05T04:09:14.303Z,58.55
2019-04-05T04:11:45.714Z,56.15
2019-04-05T04:14:17.322Z,53.23
2019-04-05T04:16:48.481Z,55.98
2019-04-05T04:19:19.860Z,50.35
2019-04-05T04:22:11.135Z,52.27
2019-04-05T04:24:42.599Z,51.08
2019-04-05T04:27:18.839Z,53.68
2019-04-05T04:29:50.159Z,56.18
2019-04-05T04:32:21.516Z,53.42
2019-04-05T04:34:54.527Z,54.58
2019-04-05T04:37:28.127Z,54.33
2019-04-05T04:39:59.442Z,52.03
2019-04-05T04:42:31.912Z,52.93
2019-04-05T04:45:11.872Z,52.65
2019-04-05T04:50:08.575Z,49.10
2019-04-05T04:52:41.551Z,52.80
2019-04-05T04:55:14.552Z,52.10
2019-04-05T04:57:47.561Z,52.08
2019-04-05T05:00:18.922Z,49.75
2019-04-05T05:02:50.218Z,54.18
2019-04-05T05:05:22.101Z,55.67
2019-04-05T05:07:55.348Z,56.48
2019-04-05T05:10:27.645Z,51.73
2019-04-05T05:13:01.839Z,47.03
2019-04-05T05:15:33.235Z,45.28
2019-04-05T05:18:07.032Z,45.85
2019-04-05T05:20:38.503Z,44.65
2019-04-05T05:23:11.582Z,46.18
2019-04-05T05:25:43.094Z,48.52
2019-04-05T05:28:14.579Z,51.10
2019-04-05T05:30:46.085Z,52.75
2019-04-05T05:33:18.522Z,49.75
2019-04-05T05:35:49.840Z,49.15
2019-04-05T05:38:21.023Z,49.70
2019-04-05T05:40:55.431Z,51.45
2019-04-05T05:43:27.613Z,49.60
2019-04-05T05:46:00.178Z,50.17
2019-04-05T05:48:32.506Z,51.40
2019-04-05T05:51:03.874Z,49.35
2019-04-05T05:53:35.422Z,52.05
2019-04-05T05:56:06.651Z,50.85
2019-04-05T05:58:39.260Z,49.80
2019-04-05T06:01:10.581Z,49.10
2019-04-05T06:03:42.098Z,51.58
2019-04-05T06:06:14.007Z,51.25
2019-04-05T06:08:45.139Z,46.60
2019-04-05T06:11:17.564Z,45.05
2019-04-05T06:13:49.174Z,41.92
2019-04-05T06:16:21.198Z,41.20
2019-04-05T06:18:52.692Z,42.48
2019-04-05T06:21:25.187Z,50.83
2019-04-05T06:23:56.589Z,50.10
2019-04-05T06:26:27.956Z,50.23
2019-04-05T06:28:59.306Z,45.63
2019-04-05T06:31:30.833Z,45.43
2019-04-05T06:34:03.206Z,38.92
2019-04-05T06:36:35.802Z,37.53
2019-04-05T06:39:08.236Z,29.02
2019-04-05T06:41:39.470Z,26.65
2019-04-05T06:44:11.097Z,26.45
2019-04-05T06:49:17.276Z,25.37
2019-04-05T06:51:50.364Z,25.05
2019-04-05T06:54:21.752Z,23.60
2019-04-05T06:56:54.908Z,28.40
2019-04-05T06:59:37.204Z,31.42
2019-04-05T07:02:09.214Z,35.23
2019-04-05T07:04:41.441Z,34.67
2019-04-05T07:07:12.606Z,34.85
2019-04-05T07:09:44.167Z,32.28
2019-04-05T07:12:15.519Z,34.30
2019-04-05T07:14:51.457Z,31.75
2019-04-05T07:17:26.500Z,31.40
2019-04-05T07:19:57.925Z,29.98
2019-04-05T07:22:38.555Z,31.70
2019-04-05T07:25:02.953Z,31.48
2019-04-05T07:27:34.861Z,31.55
2019-04-05T07:30:08.241Z,32.40
2019-04-05T07:32:41.746Z,25.02
2019-04-05T07:37:46.523Z,18.10
2019-04-05T07:40:19.134Z,22.80
2019-04-05T07:42:50.589Z,17.45
2019-04-05T07:45:23.099Z,18.73
2019-04-05T07:47:54.872Z,19.77
2019-04-05T07:50:26.834Z,25.43
2019-04-05T07:52:58.140Z,20.25
2019-04-05T07:55:29.893Z,22.77
2019-04-05T07:58:01.703Z,19.48
2019-04-05T08:00:46.566Z,18.95
2019-04-05T08:05:48.300Z,14.43
2019-04-05T08:08:35.723Z,13.65
2019-04-05T08:11:07.138Z,8.88
2019-04-05T08:13:41.545Z,10.45
2019-04-05T08:16:13.318Z,7.95
2019-04-05T08:18:58.079Z,7.83
2019-04-05T08:21:29.222Z,7.22
2019-04-05T08:24:00.841Z,10.35
2019-04-05T08:26:35.533Z,7.70
2019-04-05T08:29:07.253Z,8.10
2019-04-05T08:31:40.535Z,8.70
2019-04-05T08:34:11.849Z,21.17
2019-04-05T08:36:43.052Z,9.70
2019-04-05T08:39:16.223Z,8.95
2019-04-05T08:41:48.917Z,8.20
2019-04-05T08:44:22.061Z,9.05
2019-04-05T08:46:54.553Z,8.83
2019-04-05T08:49:25.883Z,8.70
2019-04-05T08:51:57.293Z,11.78
2019-04-05T08:54:32.772Z,14.60
2019-04-05T08:57:35.202Z,11.22
2019-04-05T09:00:10.346Z,13.40
2019-04-05T09:02:42.790Z,13.93
2019-04-05T09:05:19.804Z,13.55
2019-04-05T09:07:51.193Z,12.30
2019-04-05T09:10:22.553Z,12.90
2019-04-05T09:12:53.745Z,12.80
2019-04-05T09:15:26.054Z,12.05
2019-04-05T09:17:57.481Z,12.70
2019-04-05T09:20:28.689Z,13.15
2019-04-05T09:22:59.830Z,13.18
2019-04-05T09:25:31.008Z,13.83
2019-04-05T09:28:02.850Z,16.23
2019-04-05T09:30:33.993Z,12.40
2019-04-05T09:33:05.262Z,12.28
2019-04-05T09:35:36.404Z,10.93
2019-04-05T09:38:10.685Z,12.45
2019-04-05T09:40:42.749Z,11.83
2019-04-05T09:43:15.895Z,10.93
2019-04-05T09:45:49.897Z,9.88
2019-04-05T09:48:21.581Z,9.65
2019-04-05T09:50:52.894Z,9.40
2019-04-05T09:53:26.460Z,16.62
2019-04-05T09:55:57.956Z,9.60
2019-04-05T09:58:31.487Z,12.03
2019-04-05T10:01:03.607Z,10.43
2019-04-05T10:03:36.629Z,11.12
2019-04-05T10:06:08.994Z,10.10
2019-04-05T10:08:40.590Z,9.95
2019-04-05T10:11:11.903Z,9.25
2019-04-05T10:13:43.305Z,9.05
2019-04-05T10:16:15.680Z,9.65
2019-04-05T10:18:46.948Z,9.10
2019-04-05T10:21:20.620Z,9.03
2019-04-05T10:23:51.858Z,9.70
2019-04-05T10:26:25.295Z,10.68
2019-04-05T10:28:56.626Z,9.97
2019-04-05T10:31:27.903Z,10.45
2019-04-05T10:33:59.220Z,10.15
2019-04-05T10:36:31.202Z,10.50
2019-04-05T10:39:08.583Z,9.95
2019-04-05T10:41:43.434Z,10.90
2019-04-05T10:44:16.227Z,11.03
2019-04-05T10:46:48.595Z,10.88
2019-04-05T10:49:19.826Z,11.05
2019-04-05T10:51:58.524Z,10.93
2019-04-05T10:54:31.325Z,12.20
2019-04-05T10:57:04.354Z,11.20
2019-04-05T10:59:38.524Z,14.50
2019-04-05T11:02:10.343Z,11.30
2019-04-05T11:04:42.672Z,10.40
2019-04-05T11:07:14.398Z,10.80
2019-04-05T11:09:46.328Z,9.88
2019-04-05T11:12:17.830Z,9.50
2019-04-05T11:14:49.706Z,9.68
2019-04-05T11:17:21.354Z,10.18
2019-04-05T11:19:53.724Z,9.10
2019-04-05T11:22:25.256Z,9.65
2019-04-05T11:24:57.200Z,12.18
2019-04-05T11:27:28.468Z,10.32
2019-04-05T11:29:59.862Z,10.65
2019-04-05T11:32:31.098Z,9.70
2019-04-05T11:35:02.519Z,10.10
2019-04-05T11:37:34.697Z,10.45
2019-04-05T11:40:08.387Z,9.33
2019-04-05T11:42:41.051Z,10.50
2019-04-05T11:45:12.716Z,9.75
2019-04-05T11:47:45.871Z,14.98
2019-04-05T11:50:17.506Z,12.28
2019-04-05T11:52:49.704Z,11.97
2019-04-05T11:55:21.908Z,9.78
2019-04-05T11:57:54.863Z,9.60
2019-04-05T12:00:43.658Z,11.10
2019-04-05T12:03:25.827Z,11.55
2019-04-05T12:05:58.507Z,10.58
2019-04-05T12:08:30.994Z,10.35
2019-04-05T12:11:02.927Z,10.72
2019-04-05T12:13:34.402Z,10.63
2019-04-05T12:16:10.351Z,10.78
2019-04-05T12:18:42.974Z,10.28
2019-04-05T12:21:20.641Z,9.90
2019-04-05T12:23:51.647Z,9.90
2019-04-05T12:26:23.212Z,10.60
2019-04-05T12:28:54.686Z,10.43
2019-04-05T12:31:26.859Z,10.90
2019-04-05T12:33:58.304Z,11.03
2019-04-05T12:36:32.294Z,11.73
2019-04-05T12:39:08.159Z,11.47
2019-04-05T12:41:41.858Z,11.68
2019-04-05T12:44:15.495Z,10.98
2019-04-05T12:46:46.895Z,11.25
2019-04-05T12:49:18.147Z,11.00
2019-04-05T12:51:50.238Z,11.53
2019-04-05T12:54:21.449Z,12.45
2019-04-05T12:56:54.282Z,12.78
2019-04-05T12:59:26.275Z,13.43
2019-04-05T13:01:59.722Z,13.58
2019-04-05T13:04:31.055Z,14.00
2019-04-05T13:07:03.334Z,14.50
2019-04-05T13:09:37.266Z,13.45
2019-04-05T13:12:08.707Z,12.90
2019-04-05T13:14:39.947Z,12.60
2019-04-05T13:17:11.094Z,12.35
2019-04-05T13:19:42.980Z,12.95
2019-04-05T13:22:14.197Z,12.00
2019-04-05T13:24:47.492Z,12.18
2019-04-05T13:27:18.847Z,12.47
2019-04-05T13:29:53.153Z,12.58
2019-04-05T13:32:25.925Z,12.40
2019-04-05T13:35:01.273Z,13.10
2019-04-05T13:37:34.422Z,13.25
2019-04-05T13:40:14.170Z,13.58
2019-04-05T13:43:08.107Z,13.22
2019-04-05T13:45:41.747Z,13.30
2019-04-05T13:48:13.235Z,13.32
2019-04-05T13:50:44.558Z,13.62
2019-04-05T13:53:15.689Z,13.13
2019-04-05T13:55:47.903Z,15.48
2019-04-05T13:58:19.242Z,16.55
2019-04-05T14:00:53.329Z,14.90
2019-04-05T14:03:25.803Z,14.03
2019-04-05T14:05:58.456Z,14.30
2019-04-05T14:08:32.842Z,16.57
2019-04-05T14:11:05.472Z,17.95
2019-04-05T14:13:42.801Z,18.73
2019-04-05T14:16:16.094Z,18.30
2019-04-05T14:18:49.806Z,18.73
2019-04-05T14:21:22.229Z,19.02
2019-04-05T14:23:55.288Z,17.85
2019-04-05T14:26:27.381Z,17.73
2019-04-05T14:29:03.409Z,23.52
2019-04-05T14:31:40.296Z,18.90
2019-04-05T14:34:15.839Z,23.18
2019-04-05T14:36:52.448Z,18.10
2019-04-05T14:39:26.639Z,18.35
2019-04-05T14:42:09.067Z,50.10
2019-04-05T14:44:32.151Z,17.70
2019-04-05T14:47:04.547Z,16.65
2019-04-05T14:49:36.633Z,15.60
2019-04-05T14:52:07.942Z,16.73
2019-04-05T14:54:39.728Z,15.32
2019-04-05T14:57:11.461Z,13.80
2019-04-05T14:59:47.957Z,15.55
2019-04-05T15:02:21.090Z,15.08
2019-04-05T15:05:13.512Z,15.43
2019-04-05T15:07:51.094Z,16.90
2019-04-05T15:10:25.295Z,15.25
2019-04-05T15:13:01.752Z,16.10
2019-04-05T15:15:33.962Z,16.05
2019-04-05T15:18:07.881Z,16.85
2019-04-05T15:20:39.332Z,16.47
2019-04-05T15:23:14.065Z,15.83
2019-04-05T15:25:49.430Z,15.30
2019-04-05T15:28:20.196Z,15.35
2019-04-05T15:30:55.685Z,16.10
2019-04-05T15:33:27.443Z,16.15
2019-04-05T15:36:00.175Z,16.45
2019-04-05T15:38:31.681Z,16.17
2019-04-05T15:41:07.121Z,15.80
2019-04-05T15:43:41.067Z,14.95
2019-04-05T15:46:13.045Z,14.35
2019-04-05T15:48:44.611Z,14.58
2019-04-05T15:51:16.409Z,15.05
2019-04-05T15:53:47.910Z,14.43
2019-04-05T15:58:52.717Z,13.25
2019-04-05T16:01:23.880Z,13.75
2019-04-05T16:03:55.047Z,12.98
2019-04-05T16:06:26.296Z,12.88
2019-04-05T16:08:57.542Z,14.05
2019-04-05T16:11:31.760Z,13.62
2019-04-05T16:14:05.136Z,13.70
2019-04-05T16:16:36.662Z,13.68
2019-04-05T16:19:08.572Z,13.32
2019-04-05T16:21:39.940Z,14.90
2019-04-05T16:24:12.168Z,14.28
2019-04-05T16:26:43.385Z,14.10
2019-04-05T16:29:16.998Z,14.38
2019-04-05T16:31:49.656Z,16.52
2019-04-05T16:34:21.661Z,16.35
2019-04-05T16:36:53.175Z,16.97
2019-04-05T16:39:24.418Z,17.07
2019-04-05T16:41:59.143Z,18.15
2019-04-05T16:44:30.404Z,17.77
2019-04-05T16:47:01.639Z,19.15
2019-04-05T16:49:32.991Z,20.00
2019-04-05T16:52:04.273Z,21.90
2019-04-05T16:54:36.272Z,22.70
2019-04-05T16:57:08.964Z,20.88
2019-04-05T16:59:40.399Z,19.85
2019-04-05T17:02:11.612Z,20.05
2019-04-05T17:04:43.427Z,18.48
2019-04-05T17:07:17.013Z,19.75
2019-04-05T17:09:48.191Z,18.12
2019-04-05T17:12:21.244Z,19.60
2019-04-05T17:14:53.867Z,18.35
2019-04-05T17:17:37.154Z,18.77
2019-04-05T17:20:08.662Z,19.60
2019-04-05T17:22:40.214Z,22.20
2019-04-05T17:25:15.921Z,18.55
2019-04-05T17:27:49.109Z,18.57
2019-04-05T17:30:21.058Z,19.82
2019-04-05T17:32:55.391Z,23.12
2019-04-05T17:35:27.158Z,23.52
2019-04-05T17:38:03.327Z,31.93
2019-04-05T17:40:35.038Z,43.40
2019-04-05T17:43:06.432Z,35.68
2019-04-05T17:45:38.295Z,36.42
2019-04-05T17:48:09.541Z,36.98
2019-04-05T17:50:40.732Z,39.48
2019-04-05T17:53:13.376Z,40.67
2019-04-05T17:55:44.968Z,40.60
2019-04-05T17:58:19.951Z,39.50
2019-04-05T18:00:51.554Z,38.78
2019-04-05T18:03:23.060Z,36.42
2019-04-05T18:05:54.495Z,39.85
2019-04-05T18:08:26.202Z,38.73
2019-04-05T18:10:58.638Z,40.70
2019-04-05T18:13:30.832Z,40.63
2019-04-05T18:16:01.991Z,43.90
2019-04-05T18:18:34.139Z,50.20
2019-04-05T18:21:05.742Z,48.87
2019-04-05T18:23:36.957Z,54.50
2019-04-05T18:26:09.931Z,53.00
2019-04-05T18:28:42.079Z,54.53
2019-04-05T18:31:14.239Z,51.30
2019-04-05T18:33:48.786Z,48.65
2019-04-05T18:36:20.632Z,47.70
2019-04-05T18:38:52.241Z,47.67
2019-04-05T18:41:23.742Z,48.20
2019-04-05T18:43:59.084Z,48.92
2019-04-05T18:46:31.472Z,48.25
2019-04-05T18:49:02.782Z,50.45
2019-04-05T18:51:34.249Z,50.33
2019-04-05T18:54:07.153Z,48.92
2019-04-05T18:56:39.832Z,49.75
2019-04-05T18:59:11.841Z,68.83
2019-04-05T19:01:43.282Z,71.92
2019-04-05T19:04:15.747Z,66.37
2019-04-05T19:06:47.107Z,68.35
2019-04-05T19:09:19.265Z,71.50
2019-04-05T19:11:50.817Z,68.33
2019-04-05T19:14:22.993Z,60.45
2019-04-05T19:16:59.243Z,50.70
2019-04-05T19:19:32.447Z,49.95
2019-04-05T19:22:05.888Z,43.85
2019-04-05T19:24:38.572Z,40.17
2019-04-05T19:27:10.391Z,36.28
2019-04-05T19:29:42.150Z,34.40
2019-04-05T19:50:06.978Z,38.85
2019-04-05T19:52:38.230Z,40.25
2019-04-05T19:55:09.566Z,43.45
2019-04-05T19:57:41.144Z,41.63
2019-04-05T20:00:14.068Z,42.53
2019-04-05T20:02:47.378Z,45.70
2019-04-05T20:05:20.167Z,60.80
2019-04-05T20:07:52.027Z,54.23
2019-04-05T20:10:26.903Z,43.60
2019-04-05T20:12:59.458Z,46.73
2019-04-05T20:15:33.836Z,46.60
2019-04-05T20:18:07.950Z,44.00
2019-04-05T20:20:40.528Z,45.30
2019-04-05T20:23:12.007Z,46.98
2019-04-05T20:25:43.290Z,44.93
2019-04-05T20:28:16.822Z,45.98
2019-04-05T20:30:48.209Z,48.52
2019-04-05T20:33:19.720Z,49.42
2019-04-05T20:35:51.319Z,48.15
2019-04-05T20:38:22.615Z,46.68
2019-04-05T20:40:54.247Z,46.15
2019-04-05T20:43:25.764Z,47.17
2019-04-05T20:45:57.030Z,46.63
2019-04-05T20:48:28.570Z,44.60
2019-04-05T20:50:59.873Z,44.90
2019-04-05T20:53:31.266Z,46.33
2019-04-05T20:56:02.419Z,45.00
2019-04-05T20:58:33.981Z,47.90
2019-04-05T21:01:06.441Z,48.35
2019-04-05T21:03:37.787Z,50.65
2019-04-05T21:06:09.265Z,53.52
2019-04-05T21:08:40.497Z,52.48
2019-04-05T21:11:11.725Z,52.85
2019-04-05T21:13:44.219Z,53.55
2019-04-05T21:16:17.824Z,55.35
2019-04-05T21:18:49.044Z,53.48
2019-04-05T21:21:20.197Z,56.45
2019-04-05T21:23:51.475Z,53.75
2019-04-05T21:26:22.709Z,53.92
2019-04-05T21:29:08.189Z,52.53
2019-04-05T21:31:39.601Z,54.60
2019-04-05T21:34:11.198Z,53.55
2019-04-05T21:36:42.750Z,53.83
2019-04-05T21:39:13.992Z,58.95
2019-04-05T21:41:45.131Z,58.38
2019-04-05T21:44:16.486Z,57.40
2019-04-05T21:46:48.176Z,59.15
2019-04-05T21:49:19.724Z,53.58
2019-04-05T21:51:51.386Z,51.40
2019-04-05T21:54:22.907Z,50.40
2019-04-05T21:56:54.666Z,51.68
2019-04-05T21:59:26.382Z,52.38
2019-04-05T22:01:58.082Z,50.80
2019-04-05T22:04:29.956Z,53.23
2019-04-05T22:07:01.632Z,52.73
2019-04-05T22:09:33.346Z,51.15
2019-04-05T22:12:05.339Z,51.73
2019-04-05T22:14:36.757Z,53.38
2019-04-05T22:17:09.351Z,54.48
2019-04-05T22:19:41.109Z,52.90
2019-04-05T22:22:12.790Z,55.73
2019-04-05T22:24:44.628Z,55.03
2019-04-05T22:27:16.126Z,53.08
2019-04-05T22:29:47.824Z,51.73
2019-04-05T22:32:19.415Z,52.43
2019-04-05T22:34:51.163Z,49.60
2019-04-05T22:37:22.515Z,51.05
2019-04-05T22:39:53.990Z,47.62
2019-04-05T22:42:25.792Z,48.65
2019-04-05T22:44:57.687Z,51.65
2019-04-05T22:47:29.070Z,51.80
2019-04-05T22:50:00.615Z,49.10
2019-04-05T22:52:32.350Z,48.73
2019-04-05T22:55:10.909Z,49.27
2019-04-05T23:00:08.985Z,50.08
2019-04-05T23:02:42.039Z,47.83
2019-04-05T23:05:13.544Z,49.60
2019-04-05T23:07:45.044Z,49.38
2019-04-05T23:10:16.705Z,49.73
2019-04-05T23:12:48.160Z,49.50
2019-04-05T23:15:20.767Z,46.83
2019-04-05T23:17:53.040Z,49.38
2019-04-05T23:20:24.409Z,48.80
2019-04-05T23:22:55.913Z,47.70
2019-04-05T23:25:27.283Z,45.08
2019-04-05T23:27:58.563Z,42.95
2019-04-05T23:30:33.062Z,42.10
2019-04-05T23:33:04.580Z,45.03
2019-04-05T23:35:36.134Z,44.75
2019-04-05T23:38:07.999Z,43.15
2019-04-05T23:40:39.587Z,41.77
2019-04-05T23:43:11.390Z,41.35
2019-04-05T23:45:42.874Z,41.02
2019-04-05T23:48:14.727Z,40.65
2019-04-05T23:50:46.373Z,39.60
2019-04-05T23:53:17.979Z,41.85
2019-04-05T23:55:49.691Z,41.33
2019-04-05T23:58:21.460Z,45.10
